AirNav   Everest Fuels
 
 837 users online  

MI61 Henry Ford Wyandotte Hospital Heliport
Wyandotte, Michigan, USA

GOING TO WYANDOTTE?


FAA INFORMATION EFFECTIVE 18 JUNE 2020

Location

FAA Identifier: MI61
Lat/Long: 42-12-33.8700N 083-08-38.7200W
42-12.564500N 083-08.645333W
42.2094083,-83.1440889
(estimated)
Elevation: 578 ft. / 176 m (estimated)
Variation: 06W (1985)
From city: LCTD IN TOWN.
Time zone: UTC -4 (UTC -5 during Standard Time)
Zip code: 48192

Heliport Operations

Heliport use: Private use, MEDICAL USE.
Activation date: 10/1970
Control tower: no
ARTCC: CLEVELAND CENTER
FSS: LANSING FLIGHT SERVICE STATION
Attendance: IREG
Wind indicator: lighted
Segmented circle: no

Heliport Communications

WX AWOS-3 at ONZ (7 nm S): 119.675 (734-692-9686)
WX ASOS at DTW (9 nm W): 133.675 (734-955-5015)
WX ASOS at DET (13 nm NE): PHONE 313-371-9696
WX ASOS at YIP (17 nm W): PHONE 734-961-6843

Nearby radio navigation aids

VOR radial/distance  VOR name  Freq  Var
DXOr097/9.9DETROIT VOR/DME113.4006W
CRLr058/17.0CARLETON VOR/DME115.7003W
SVMr124/23.3SALEM VORTAC114.3003W

 
NDB name  Hdg/Dist  Freq  Var  ID
GROSSE ILE010/6.541907WRYS .-. -.-- ...
TECUMSEH078/34.723906WTCU - -.-. ..-

Heliport Services

Airframe service: NONE
Powerplant service: NONE

Runway Information

Helipad H1

Dimensions: 40 x 40 ft. / 12 x 12 m
Surface: concrete
Latitude: 42-12.564500N
Longitude: 083-08.645333W
Elevation: 578.0 ft.
Traffic pattern: leftleft

Heliport Ownership and Management from official FAA records

Ownership: Privately-owned
Owner: HENRY FORD HEALTH SYSTEM
WYANDOTTE HOSPITAL
WYANDOTTE, MI 48192
Phone (734) 246-6008
Manager: TOM MAHONY
2333 BIDDLE
WYANDOTTE, MI 48192
Phone (734) 246-6008
EXT2604

Additional Remarks

APCHS & DEPS TO THE N.
+64 FT UNLGTD MAST POLE 500 NNE OF HELI.
FOR CD CTC DETROIT APCH AT 800-499-8181.

Instrument Procedures

There are no published instrument procedures at MI61.

Some nearby airports with instrument procedures:

KONZ - Grosse Ile Municipal Airport (7 nm S)
KDTW - Detroit Metropolitan Wayne County Airport (9 nm W)
KDET - Coleman A Young Municipal Airport (13 nm NE)
1D2 - Canton-Plymouth-Mettetal Airport (16 nm NW)
KYIP - Willow Run Airport (17 nm W)
 
Loc | Ops | Rwys | IFR | FBO | Links
Com | Nav | Svcs | Stats | Notes
Area around MI61 (Henry Ford Wyandotte Hospital Heliport)
 
Road maps at: MapQuest Bing Google
 
Aerial photo
No photo
 
Sectional chart

 
Airport distance calculator
Flying to Henry Ford Wyandotte Hospital Heliport? Find the distance to fly.

From to MI61

Sunrise and sunset
Times for 14-Jul-2020
 Local
(UTC-4)
 Zulu
(UTC)
Morning civil twilight05:3709:37
Sunrise06:1110:11
Sunset21:0601:06
Evening civil twilight21:4001:40

Current date and time
Zulu (UTC)  15-Jul-2020 03:15:24
Local (UTC-4)  14-Jul-2020 23:15:24
 
METAR
KONZ 
7nm S 
150255Z AUTO 15004KT 10SM CLR 24/18 A3007 RMK AO2 T02360176
KDTW 
9nm W 
150253Z 14005KT 10SM SCT220 23/17 A3008 RMK AO2 SLP181 T02330167 50004
CYQG 
9nm NE 
150200Z AUTO VRB02KT 9SM CLR 22/18 A3009 RMK SLP188 DENSITY ALT 1300FT
KDET 
13nm NE 
150253Z 16005KT 10SM CLR 23/16 A3008 RMK AO2 SLP181 T02330161 50003
CXHA 
15nm SE 
150200Z AUTO 12001KT 21/17 RMK AO1 SLP182 T02140173 53008
KYIP 
17nm W 
150253Z 14008KT 10SM CLR 24/17 A3008 RMK AO2 SLP177 T02390172 50003
TAF
KDTW 
9nm W 
142046Z 1421/1524 20005KT P6SM SCT060 BKN250 FM150000 15003KT P6SM SCT250 FM151400 19007KT P6SM SCT250
CYQG 
9nm NE 
141742Z 1418/1518 15005KT P6SM FEW050 TEMPO 1418/1422 BKN050 BECMG 1510/1512 20006KT RMK FCST BASED ON AUTO OBS. NXT FCST BY 150000Z
KDET 
13nm NE 
141727Z 1418/1518 16004KT P6SM SCT060 SCT250 TEMPO 1418/1421 BKN050 FM150000 15003KT P6SM SCT250 FM151400 17007KT P6SM SCT250
KYIP 
17nm W 
141727Z 1418/1518 20005KT P6SM SCT060 SCT250 TEMPO 1418/1421 BKN050 FM150000 15003KT P6SM SCT250 FM151400 19007KT P6SM SCT250
NOTAMs
Click for the latest NOTAMs
NOTAMs are issued by the DoD/FAA and will open in a separate window not controlled by AirNav.

 

 
 

Would you like to see your business listed on this page?

 If your business provides an interesting product or service to pilots, flight crews, aircraft, or users of the Henry Ford Wyandotte Hospital Heliport, you should consider listing it here.  To start the listing process, click on the button below
 
Add a business
 

Other Pages about Henry Ford Wyandotte Hospital Heliport

Update a link
 
Copyright © AirNav, LLC. All rights reserved. Privacy Policy  Contact